sensor_id;sensor_type;location;lat;lon;timestamp;P1;durP1;ratioP1;P2;durP2;ratioP2
10150;SDS011;5116;52.318;4.644;2023-06-04T00:00:14;1.07;;;0.97;;
10150;SDS011;5116;52.318;4.644;2023-06-04T00:02:42;2.30;;;1.27;;
10150;SDS011;5116;52.318;4.644;2023-06-04T00:05:10;1.00;;;1.00;;
10150;SDS011;5116;52.318;4.644;2023-06-04T00:07:37;1.20;;;1.10;;
10150;SDS011;5116;52.318;4.644;2023-06-04T00:10:05;1.17;;;1.17;;
10150;SDS011;5116;52.318;4.644;2023-06-04T00:12:32;1.13;;;1.03;;
10150;SDS011;5116;52.318;4.644;2023-06-04T00:15:00;0.93;;;0.93;;
10150;SDS011;5116;52.318;4.644;2023-06-04T00:17:27;1.00;;;0.90;;
10150;SDS011;5116;52.318;4.644;2023-06-04T00:19:55;1.23;;;1.17;;
10150;SDS011;5116;52.318;4.644;2023-06-04T00:22:22;1.67;;;1.20;;
10150;SDS011;5116;52.318;4.644;2023-06-04T00:24:50;1.30;;;1.20;;
10150;SDS011;5116;52.318;4.644;2023-06-04T00:27:17;1.87;;;1.10;;
10150;SDS011;5116;52.318;4.644;2023-06-04T00:29:45;1.20;;;1.10;;
10150;SDS011;5116;52.318;4.644;2023-06-04T00:32:12;1.17;;;1.07;;
10150;SDS011;5116;52.318;4.644;2023-06-04T00:34:40;0.90;;;0.90;;
10150;SDS011;5116;52.318;4.644;2023-06-04T00:37:08;1.13;;;1.03;;
10150;SDS011;5116;52.318;4.644;2023-06-04T00:39:35;1.20;;;1.10;;
10150;SDS011;5116;52.318;4.644;2023-06-04T00:42:03;0.90;;;0.90;;
10150;SDS011;5116;52.318;4.644;2023-06-04T00:44:31;1.30;;;0.90;;
10150;SDS011;5116;52.318;4.644;2023-06-04T00:47:00;1.10;;;1.00;;
10150;SDS011;5116;52.318;4.644;2023-06-04T00:49:27;1.20;;;1.10;;
10150;SDS011;5116;52.318;4.644;2023-06-04T00:51:55;1.20;;;1.10;;
10150;SDS011;5116;52.318;4.644;2023-06-04T00:54:22;1.03;;;1.03;;
10150;SDS011;5116;52.318;4.644;2023-06-04T00:56:51;0.90;;;0.90;;
10150;SDS011;5116;52.318;4.644;2023-06-04T00:59:18;2.07;;;1.10;;
10150;SDS011;5116;52.318;4.644;2023-06-04T01:04:18;1.03;;;1.03;;
10150;SDS011;5116;52.318;4.644;2023-06-04T01:06:49;1.07;;;1.03;;
10150;SDS011;5116;52.318;4.644;2023-06-04T01:09:18;1.03;;;1.00;;
10150;SDS011;5116;52.318;4.644;2023-06-04T01:11:46;1.40;;;1.30;;
10150;SDS011;5116;52.318;4.644;2023-06-04T01:14:14;1.37;;;1.00;;
10150;SDS011;5116;52.318;4.644;2023-06-04T01:16:47;1.07;;;1.00;;
10150;SDS011;5116;52.318;4.644;2023-06-04T01:20:06;1.17;;;1.00;;
10150;SDS011;5116;52.318;4.644;2023-06-04T01:22:10;1.43;;;1.23;;
10150;SDS011;5116;52.318;4.644;2023-06-04T01:24:42;1.10;;;1.07;;
10150;SDS011;5116;52.318;4.644;2023-06-04T01:27:12;3.13;;;1.10;;
10150;SDS011;5116;52.318;4.644;2023-06-04T01:29:42;1.67;;;1.10;;
10150;SDS011;5116;52.318;4.644;2023-06-04T01:32:11;1.20;;;1.10;;
10150;SDS011;5116;52.318;4.644;2023-06-04T01:34:48;1.40;;;1.20;;
10150;SDS011;5116;52.318;4.644;2023-06-04T01:37:15;1.80;;;1.30;;
10150;SDS011;5116;52.318;4.644;2023-06-04T01:39:43;1.50;;;1.30;;
10150;SDS011;5116;52.318;4.644;2023-06-04T01:42:11;1.90;;;1.07;;
10150;SDS011;5116;52.318;4.644;2023-06-04T01:44:38;1.03;;;1.00;;
10150;SDS011;5116;52.318;4.644;2023-06-04T01:47:05;0.90;;;0.90;;
10150;SDS011;5116;52.318;4.644;2023-06-04T01:49:34;1.10;;;1.10;;
10150;SDS011;5116;52.318;4.644;2023-06-04T01:52:04;1.83;;;1.20;;
10150;SDS011;5116;52.318;4.644;2023-06-04T01:54:32;1.27;;;1.17;;
10150;SDS011;5116;52.318;4.644;2023-06-04T01:57:00;1.63;;;1.20;;
10150;SDS011;5116;52.318;4.644;2023-06-04T01:59:27;1.03;;;1.03;;
10150;SDS011;5116;52.318;4.644;2023-06-04T02:01:55;1.27;;;1.20;;
10150;SDS011;5116;52.318;4.644;2023-06-04T02:04:22;1.10;;;1.00;;
10150;SDS011;5116;52.318;4.644;2023-06-04T02:06:50;0.90;;;0.90;;
10150;SDS011;5116;52.318;4.644;2023-06-04T02:09:18;1.30;;;1.20;;
10150;SDS011;5116;52.318;4.644;2023-06-04T02:11:45;1.20;;;1.07;;
10150;SDS011;5116;52.318;4.644;2023-06-04T02:14:12;1.27;;;1.17;;
10150;SDS011;5116;52.318;4.644;2023-06-04T02:16:40;1.43;;;1.20;;
10150;SDS011;5116;52.318;4.644;2023-06-04T02:19:07;1.43;;;1.33;;
10150;SDS011;5116;52.318;4.644;2023-06-04T02:21:35;1.87;;;1.40;;
10150;SDS011;5116;52.318;4.644;2023-06-04T02:24:03;1.27;;;1.20;;
10150;SDS011;5116;52.318;4.644;2023-06-04T02:26:30;1.30;;;1.20;;
10150;SDS011;5116;52.318;4.644;2023-06-04T02:28:58;1.87;;;1.30;;
10150;SDS011;5116;52.318;4.644;2023-06-04T02:31:26;1.30;;;1.13;;
10150;SDS011;5116;52.318;4.644;2023-06-04T02:33:55;1.27;;;1.17;;
10150;SDS011;5116;52.318;4.644;2023-06-04T02:36:22;1.30;;;1.20;;
10150;SDS011;5116;52.318;4.644;2023-06-04T02:38:50;1.20;;;1.10;;
10150;SDS011;5116;52.318;4.644;2023-06-04T02:41:17;1.40;;;1.20;;
10150;SDS011;5116;52.318;4.644;2023-06-04T02:43:45;1.23;;;1.13;;
10150;SDS011;5116;52.318;4.644;2023-06-04T02:46:12;1.73;;;1.40;;
10150;SDS011;5116;52.318;4.644;2023-06-04T02:48:40;3.30;;;1.43;;
10150;SDS011;5116;52.318;4.644;2023-06-04T02:51:07;2.13;;;1.20;;
10150;SDS011;5116;52.318;4.644;2023-06-04T02:53:36;1.23;;;1.13;;
10150;SDS011;5116;52.318;4.644;2023-06-04T02:56:04;2.13;;;1.30;;
10150;SDS011;5116;52.318;4.644;2023-06-04T02:58:32;3.20;;;1.50;;
10150;SDS011;5116;52.318;4.644;2023-06-04T03:01:05;2.23;;;1.30;;
10150;SDS011;5116;52.318;4.644;2023-06-04T03:03:33;1.43;;;1.30;;
10150;SDS011;5116;52.318;4.644;2023-06-04T03:06:01;2.33;;;1.50;;
10150;SDS011;5116;52.318;4.644;2023-06-04T03:08:31;2.10;;;1.60;;
10150;SDS011;5116;52.318;4.644;2023-06-04T03:10:58;1.40;;;1.30;;
10150;SDS011;5116;52.318;4.644;2023-06-04T03:13:26;1.53;;;1.20;;
10150;SDS011;5116;52.318;4.644;2023-06-04T03:15:53;1.80;;;1.37;;
10150;SDS011;5116;52.318;4.644;2023-06-04T03:18:22;1.50;;;1.37;;
10150;SDS011;5116;52.318;4.644;2023-06-04T03:20:49;1.40;;;1.30;;
10150;SDS011;5116;52.318;4.644;2023-06-04T03:23:16;1.50;;;1.40;;
10150;SDS011;5116;52.318;4.644;2023-06-04T03:25:44;1.40;;;1.30;;
10150;SDS011;5116;52.318;4.644;2023-06-04T03:28:11;1.37;;;1.27;;
10150;SDS011;5116;52.318;4.644;2023-06-04T03:30:40;1.50;;;1.40;;
10150;SDS011;5116;52.318;4.644;2023-06-04T03:33:07;1.53;;;1.43;;
10150;SDS011;5116;52.318;4.644;2023-06-04T03:35:35;2.07;;;1.77;;
10150;SDS011;5116;52.318;4.644;2023-06-04T03:38:02;1.67;;;1.57;;
10150;SDS011;5116;52.318;4.644;2023-06-04T03:40:31;1.27;;;1.20;;
10150;SDS011;5116;52.318;4.644;2023-06-04T03:42:59;1.50;;;1.40;;
10150;SDS011;5116;52.318;4.644;2023-06-04T03:45:30;1.50;;;1.40;;
10150;SDS011;5116;52.318;4.644;2023-06-04T03:47:57;2.17;;;1.20;;
10150;SDS011;5116;52.318;4.644;2023-06-04T03:50:26;2.37;;;1.80;;
10150;SDS011;5116;52.318;4.644;2023-06-04T03:52:55;1.97;;;1.50;;
10150;SDS011;5116;52.318;4.644;2023-06-04T03:55:23;1.87;;;1.70;;
10150;SDS011;5116;52.318;4.644;2023-06-04T03:57:52;1.47;;;1.30;;
10150;SDS011;5116;52.318;4.644;2023-06-04T04:00:19;2.20;;;1.70;;
10150;SDS011;5116;52.318;4.644;2023-06-04T04:02:51;1.60;;;1.50;;
10150;SDS011;5116;52.318;4.644;2023-06-04T04:05:22;1.77;;;1.67;;
10150;SDS011;5116;52.318;4.644;2023-06-04T04:07:50;1.87;;;1.60;;
10150;SDS011;5116;52.318;4.644;2023-06-04T04:10:22;3.03;;;1.57;;
10150;SDS011;5116;52.318;4.644;2023-06-04T04:12:49;2.20;;;1.83;;
10150;SDS011;5116;52.318;4.644;2023-06-04T04:15:19;1.80;;;1.60;;
10150;SDS011;5116;52.318;4.644;2023-06-04T04:17:48;3.03;;;1.63;;
10150;SDS011;5116;52.318;4.644;2023-06-04T04:20:16;2.10;;;1.60;;
10150;SDS011;5116;52.318;4.644;2023-06-04T04:22:50;2.60;;;2.00;;
10150;SDS011;5116;52.318;4.644;2023-06-04T04:25:20;1.80;;;1.70;;
10150;SDS011;5116;52.318;4.644;2023-06-04T04:27:47;1.63;;;1.53;;
10150;SDS011;5116;52.318;4.644;2023-06-04T04:30:15;1.97;;;1.60;;
10150;SDS011;5116;52.318;4.644;2023-06-04T04:32:46;1.60;;;1.50;;
10150;SDS011;5116;52.318;4.644;2023-06-04T04:35:21;1.67;;;1.57;;
10150;SDS011;5116;52.318;4.644;2023-06-04T04:37:52;1.40;;;1.30;;
10150;SDS011;5116;52.318;4.644;2023-06-04T04:40:20;1.87;;;1.67;;
10150;SDS011;5116;52.318;4.644;2023-06-04T04:42:49;1.57;;;1.47;;
10150;SDS011;5116;52.318;4.644;2023-06-04T04:45:19;1.77;;;1.67;;
10150;SDS011;5116;52.318;4.644;2023-06-04T04:47:48;1.50;;;1.40;;
10150;SDS011;5116;52.318;4.644;2023-06-04T04:50:17;3.77;;;1.53;;
10150;SDS011;5116;52.318;4.644;2023-06-04T04:52:45;1.73;;;1.63;;
10150;SDS011;5116;52.318;4.644;2023-06-04T04:55:12;2.80;;;1.90;;
10150;SDS011;5116;52.318;4.644;2023-06-04T04:57:43;2.27;;;1.77;;
10150;SDS011;5116;52.318;4.644;2023-06-04T05:00:11;1.43;;;1.33;;
10150;SDS011;5116;52.318;4.644;2023-06-04T05:02:41;1.50;;;1.40;;
10150;SDS011;5116;52.318;4.644;2023-06-04T05:05:10;1.77;;;1.60;;
10150;SDS011;5116;52.318;4.644;2023-06-04T05:07:37;1.60;;;1.50;;
10150;SDS011;5116;52.318;4.644;2023-06-04T05:10:05;3.67;;;1.90;;
10150;SDS011;5116;52.318;4.644;2023-06-04T05:12:34;1.73;;;1.63;;
10150;SDS011;5116;52.318;4.644;2023-06-04T05:15:03;2.10;;;1.80;;
10150;SDS011;5116;52.318;4.644;2023-06-04T05:17:30;2.03;;;1.90;;
10150;SDS011;5116;52.318;4.644;2023-06-04T05:20:03;2.40;;;1.87;;
10150;SDS011;5116;52.318;4.644;2023-06-04T05:22:35;2.33;;;1.50;;
10150;SDS011;5116;52.318;4.644;2023-06-04T05:25:04;1.57;;;1.20;;
10150;SDS011;5116;52.318;4.644;2023-06-04T05:27:32;3.37;;;1.80;;
10150;SDS011;5116;52.318;4.644;2023-06-04T05:30:02;1.67;;;1.57;;
10150;SDS011;5116;52.318;4.644;2023-06-04T05:32:31;1.60;;;1.50;;
10150;SDS011;5116;52.318;4.644;2023-06-04T05:34:59;1.87;;;1.50;;
10150;SDS011;5116;52.318;4.644;2023-06-04T05:37:30;2.07;;;1.60;;
10150;SDS011;5116;52.318;4.644;2023-06-04T05:40:00;2.90;;;1.70;;
10150;SDS011;5116;52.318;4.644;2023-06-04T05:42:29;1.90;;;1.80;;
10150;SDS011;5116;52.318;4.644;2023-06-04T05:44:56;1.60;;;1.50;;
10150;SDS011;5116;52.318;4.644;2023-06-04T05:47:24;1.87;;;1.60;;
10150;SDS011;5116;52.318;4.644;2023-06-04T05:49:52;1.77;;;1.60;;
10150;SDS011;5116;52.318;4.644;2023-06-04T05:52:19;1.57;;;1.47;;
10150;SDS011;5116;52.318;4.644;2023-06-04T05:54:47;1.67;;;1.57;;
10150;SDS011;5116;52.318;4.644;2023-06-04T05:57:15;1.77;;;1.67;;
10150;SDS011;5116;52.318;4.644;2023-06-04T05:59:42;1.70;;;1.60;;
10150;SDS011;5116;52.318;4.644;2023-06-04T06:02:13;2.43;;;2.20;;
10150;SDS011;5116;52.318;4.644;2023-06-04T06:04:41;2.00;;;1.80;;
10150;SDS011;5116;52.318;4.644;2023-06-04T06:07:09;1.77;;;1.67;;
10150;SDS011;5116;52.318;4.644;2023-06-04T06:09:37;2.70;;;1.77;;
10150;SDS011;5116;52.318;4.644;2023-06-04T06:12:04;2.53;;;1.57;;
10150;SDS011;5116;52.318;4.644;2023-06-04T06:14:34;1.70;;;1.60;;
10150;SDS011;5116;52.318;4.644;2023-06-04T06:17:02;1.67;;;1.50;;
10150;SDS011;5116;52.318;4.644;2023-06-04T06:19:31;1.60;;;1.50;;
10150;SDS011;5116;52.318;4.644;2023-06-04T06:21:58;1.53;;;1.43;;
10150;SDS011;5116;52.318;4.644;2023-06-04T06:24:28;1.80;;;1.70;;
10150;SDS011;5116;52.318;4.644;2023-06-04T06:26:55;3.30;;;1.50;;
10150;SDS011;5116;52.318;4.644;2023-06-04T06:29:23;1.70;;;1.60;;
10150;SDS011;5116;52.318;4.644;2023-06-04T06:31:51;1.67;;;1.57;;
10150;SDS011;5116;52.318;4.644;2023-06-04T06:34:19;4.00;;;1.63;;
10150;SDS011;5116;52.318;4.644;2023-06-04T06:36:46;3.00;;;1.83;;
10150;SDS011;5116;52.318;4.644;2023-06-04T06:39:14;1.93;;;1.47;;
10150;SDS011;5116;52.318;4.644;2023-06-04T06:41:42;1.93;;;1.53;;
10150;SDS011;5116;52.318;4.644;2023-06-04T06:44:13;1.27;;;1.20;;
10150;SDS011;5116;52.318;4.644;2023-06-04T06:46:41;1.90;;;1.80;;
10150;SDS011;5116;52.318;4.644;2023-06-04T06:49:08;4.43;;;1.53;;
10150;SDS011;5116;52.318;4.644;2023-06-04T06:51:36;1.70;;;1.60;;
10150;SDS011;5116;52.318;4.644;2023-06-04T06:54:04;1.70;;;1.60;;
10150;SDS011;5116;52.318;4.644;2023-06-04T06:56:31;2.87;;;1.40;;
10150;SDS011;5116;52.318;4.644;2023-06-04T06:59:00;2.57;;;1.87;;
10150;SDS011;5116;52.318;4.644;2023-06-04T07:01:28;3.03;;;1.60;;
10150;SDS011;5116;52.318;4.644;2023-06-04T07:03:57;3.27;;;1.60;;
10150;SDS011;5116;52.318;4.644;2023-06-04T07:06:25;2.37;;;1.60;;
10150;SDS011;5116;52.318;4.644;2023-06-04T07:08:52;2.80;;;1.70;;
10150;SDS011;5116;52.318;4.644;2023-06-04T07:11:20;2.37;;;1.60;;
10150;SDS011;5116;52.318;4.644;2023-06-04T07:13:48;2.63;;;1.73;;
10150;SDS011;5116;52.318;4.644;2023-06-04T07:16:18;3.53;;;1.63;;
10150;SDS011;5116;52.318;4.644;2023-06-04T07:18:47;3.30;;;1.70;;
10150;SDS011;5116;52.318;4.644;2023-06-04T07:21:16;1.90;;;1.50;;
10150;SDS011;5116;52.318;4.644;2023-06-04T07:23:46;3.17;;;1.53;;
10150;SDS011;5116;52.318;4.644;2023-06-04T07:26:16;1.70;;;1.60;;
10150;SDS011;5116;52.318;4.644;2023-06-04T07:28:45;2.53;;;1.53;;
10150;SDS011;5116;52.318;4.644;2023-06-04T07:31:16;1.60;;;1.50;;
10150;SDS011;5116;52.318;4.644;2023-06-04T07:33:44;1.87;;;1.50;;
10150;SDS011;5116;52.318;4.644;2023-06-04T07:36:12;1.47;;;1.37;;
10150;SDS011;5116;52.318;4.644;2023-06-04T07:38:40;3.13;;;1.73;;
10150;SDS011;5116;52.318;4.644;2023-06-04T07:41:08;1.73;;;1.50;;
10150;SDS011;5116;52.318;4.644;2023-06-04T07:43:36;2.47;;;1.60;;
10150;SDS011;5116;52.318;4.644;2023-06-04T07:46:06;1.60;;;1.50;;
10150;SDS011;5116;52.318;4.644;2023-06-04T07:48:34;2.03;;;1.30;;
10150;SDS011;5116;52.318;4.644;2023-06-04T07:51:02;1.63;;;1.53;;
10150;SDS011;5116;52.318;4.644;2023-06-04T07:53:31;1.23;;;1.13;;
10150;SDS011;5116;52.318;4.644;2023-06-04T07:55:59;1.40;;;1.30;;
10150;SDS011;5116;52.318;4.644;2023-06-04T07:58:27;3.63;;;1.70;;
10150;SDS011;5116;52.318;4.644;2023-06-04T08:00:54;1.60;;;1.40;;
10150;SDS011;5116;52.318;4.644;2023-06-04T08:03:22;1.50;;;1.40;;
10150;SDS011;5116;52.318;4.644;2023-06-04T08:05:50;1.90;;;1.37;;
10150;SDS011;5116;52.318;4.644;2023-06-04T08:08:17;1.57;;;1.47;;
10150;SDS011;5116;52.318;4.644;2023-06-04T08:10:45;1.50;;;1.40;;
10150;SDS011;5116;52.318;4.644;2023-06-04T08:13:12;1.40;;;1.30;;
10150;SDS011;5116;52.318;4.644;2023-06-04T08:15:40;1.40;;;1.30;;
10150;SDS011;5116;52.318;4.644;2023-06-04T08:18:27;1.30;;;1.20;;
10150;SDS011;5116;52.318;4.644;2023-06-04T08:21:09;1.10;;;1.10;;
10150;SDS011;5116;52.318;4.644;2023-06-04T08:23:55;1.07;;;1.07;;
10150;SDS011;5116;52.318;4.644;2023-06-04T08:26:41;1.53;;;1.43;;
10150;SDS011;5116;52.318;4.644;2023-06-04T08:29:24;1.50;;;1.40;;
10150;SDS011;5116;52.318;4.644;2023-06-04T08:31:53;1.43;;;1.33;;
10150;SDS011;5116;52.318;4.644;2023-06-04T08:34:28;1.43;;;1.33;;
10150;SDS011;5116;52.318;4.644;2023-06-04T08:36:55;2.03;;;1.37;;
10150;SDS011;5116;52.318;4.644;2023-06-04T08:39:23;1.40;;;1.30;;
10150;SDS011;5116;52.318;4.644;2023-06-04T08:41:52;1.43;;;1.17;;
10150;SDS011;5116;52.318;4.644;2023-06-04T08:44:21;1.30;;;1.20;;
10150;SDS011;5116;52.318;4.644;2023-06-04T08:46:52;1.33;;;1.10;;
10150;SDS011;5116;52.318;4.644;2023-06-04T08:49:21;1.63;;;1.40;;
10150;SDS011;5116;52.318;4.644;2023-06-04T08:51:49;1.50;;;1.40;;
10150;SDS011;5116;52.318;4.644;2023-06-04T08:54:17;1.67;;;1.30;;
10150;SDS011;5116;52.318;4.644;2023-06-04T08:56:44;1.40;;;1.30;;
10150;SDS011;5116;52.318;4.644;2023-06-04T08:59:12;1.30;;;1.20;;
10150;SDS011;5116;52.318;4.644;2023-06-04T09:01:40;1.17;;;1.17;;
10150;SDS011;5116;52.318;4.644;2023-06-04T09:04:11;1.47;;;1.30;;
10150;SDS011;5116;52.318;4.644;2023-06-04T09:06:39;1.00;;;1.00;;
10150;SDS011;5116;52.318;4.644;2023-06-04T09:09:09;1.30;;;1.20;;
10150;SDS011;5116;52.318;4.644;2023-06-04T09:11:55;1.83;;;1.47;;
10150;SDS011;5116;52.318;4.644;2023-06-04T09:14:26;1.23;;;1.20;;
10150;SDS011;5116;52.318;4.644;2023-06-04T09:16:54;1.23;;;1.17;;
10150;SDS011;5116;52.318;4.644;2023-06-04T09:19:22;1.07;;;1.07;;
10150;SDS011;5116;52.318;4.644;2023-06-04T09:21:50;1.20;;;1.03;;
10150;SDS011;5116;52.318;4.644;2023-06-04T09:24:18;1.37;;;1.27;;
10150;SDS011;5116;52.318;4.644;2023-06-04T09:26:45;1.20;;;1.10;;
10150;SDS011;5116;52.318;4.644;2023-06-04T09:29:13;1.00;;;1.00;;
10150;SDS011;5116;52.318;4.644;2023-06-04T09:31:45;1.00;;;1.00;;
10150;SDS011;5116;52.318;4.644;2023-06-04T09:34:14;2.63;;;1.30;;
10150;SDS011;5116;52.318;4.644;2023-06-04T09:36:41;1.57;;;1.20;;
10150;SDS011;5116;52.318;4.644;2023-06-04T09:39:15;1.40;;;1.30;;
10150;SDS011;5116;52.318;4.644;2023-06-04T09:41:43;1.20;;;1.10;;
10150;SDS011;5116;52.318;4.644;2023-06-04T09:44:11;1.50;;;1.03;;
10150;SDS011;5116;52.318;4.644;2023-06-04T09:46:38;1.30;;;1.20;;
10150;SDS011;5116;52.318;4.644;2023-06-04T09:49:07;1.20;;;1.17;;
10150;SDS011;5116;52.318;4.644;2023-06-04T09:51:35;3.83;;;1.30;;
10150;SDS011;5116;52.318;4.644;2023-06-04T09:54:03;1.63;;;1.27;;
10150;SDS011;5116;52.318;4.644;2023-06-04T09:56:38;0.83;;;0.83;;
10150;SDS011;5116;52.318;4.644;2023-06-04T09:59:06;1.20;;;1.20;;
10150;SDS011;5116;52.318;4.644;2023-06-04T10:01:39;1.20;;;1.10;;
10150;SDS011;5116;52.318;4.644;2023-06-04T10:04:10;1.30;;;1.20;;
10150;SDS011;5116;52.318;4.644;2023-06-04T10:06:40;1.87;;;1.77;;
10150;SDS011;5116;52.318;4.644;2023-06-04T10:09:08;0.90;;;0.90;;
10150;SDS011;5116;52.318;4.644;2023-06-04T10:11:50;1.30;;;1.20;;
10150;SDS011;5116;52.318;4.644;2023-06-04T10:14:21;1.30;;;1.20;;
10150;SDS011;5116;52.318;4.644;2023-06-04T10:16:50;2.07;;;1.40;;
10150;SDS011;5116;52.318;4.644;2023-06-04T10:19:18;1.00;;;1.00;;
10150;SDS011;5116;52.318;4.644;2023-06-04T10:21:46;1.50;;;1.40;;
10150;SDS011;5116;52.318;4.644;2023-06-04T10:24:14;1.20;;;1.07;;
10150;SDS011;5116;52.318;4.644;2023-06-04T10:26:42;1.40;;;1.30;;
10150;SDS011;5116;52.318;4.644;2023-06-04T10:29:10;1.00;;;1.00;;
10150;SDS011;5116;52.318;4.644;2023-06-04T10:31:38;2.50;;;1.10;;
10150;SDS011;5116;52.318;4.644;2023-06-04T10:34:07;1.00;;;1.00;;
10150;SDS011;5116;52.318;4.644;2023-06-04T10:36:42;1.50;;;1.40;;
10150;SDS011;5116;52.318;4.644;2023-06-04T10:39:10;1.40;;;1.30;;
10150;SDS011;5116;52.318;4.644;2023-06-04T10:41:38;1.37;;;1.20;;
10150;SDS011;5116;52.318;4.644;2023-06-04T10:44:06;1.00;;;1.00;;
10150;SDS011;5116;52.318;4.644;2023-06-04T10:46:38;1.00;;;1.00;;
10150;SDS011;5116;52.318;4.644;2023-06-04T10:49:10;1.07;;;0.97;;
10150;SDS011;5116;52.318;4.644;2023-06-04T10:51:38;1.10;;;1.10;;
10150;SDS011;5116;52.318;4.644;2023-06-04T10:54:07;1.03;;;1.00;;
10150;SDS011;5116;52.318;4.644;2023-06-04T10:56:35;1.80;;;1.47;;
10150;SDS011;5116;52.318;4.644;2023-06-04T10:59:13;1.00;;;1.00;;
10150;SDS011;5116;52.318;4.644;2023-06-04T11:01:41;1.20;;;1.10;;
10150;SDS011;5116;52.318;4.644;2023-06-04T11:04:24;1.10;;;1.00;;
10150;SDS011;5116;52.318;4.644;2023-06-04T11:07:05;1.20;;;1.10;;
10150;SDS011;5116;52.318;4.644;2023-06-04T11:09:37;0.93;;;0.93;;
10150;SDS011;5116;52.318;4.644;2023-06-04T11:12:05;0.80;;;0.80;;
10150;SDS011;5116;52.318;4.644;2023-06-04T11:14:32;1.40;;;1.20;;
10150;SDS011;5116;52.318;4.644;2023-06-04T11:17:09;1.13;;;1.10;;
10150;SDS011;5116;52.318;4.644;2023-06-04T11:19:38;1.27;;;1.17;;
10150;SDS011;5116;52.318;4.644;2023-06-04T11:22:05;2.07;;;1.20;;
10150;SDS011;5116;52.318;4.644;2023-06-04T11:24:33;1.27;;;1.10;;
10150;SDS011;5116;52.318;4.644;2023-06-04T11:27:01;3.33;;;1.17;;
10150;SDS011;5116;52.318;4.644;2023-06-04T11:29:43;2.13;;;1.40;;
10150;SDS011;5116;52.318;4.644;2023-06-04T11:32:20;2.20;;;1.40;;
10150;SDS011;5116;52.318;4.644;2023-06-04T11:34:48;2.10;;;1.20;;
10150;SDS011;5116;52.318;4.644;2023-06-04T11:37:15;3.03;;;1.47;;
10150;SDS011;5116;52.318;4.644;2023-06-04T11:39:43;1.50;;;1.37;;
10150;SDS011;5116;52.318;4.644;2023-06-04T11:42:11;1.17;;;1.17;;
10150;SDS011;5116;52.318;4.644;2023-06-04T11:44:38;1.97;;;1.13;;
10150;SDS011;5116;52.318;4.644;2023-06-04T11:47:11;2.57;;;1.40;;
10150;SDS011;5116;52.318;4.644;2023-06-04T11:49:39;1.20;;;1.10;;
10150;SDS011;5116;52.318;4.644;2023-06-04T11:52:06;1.07;;;1.00;;
10150;SDS011;5116;52.318;4.644;2023-06-04T11:54:34;3.30;;;1.20;;
10150;SDS011;5116;52.318;4.644;2023-06-04T11:57:05;1.40;;;1.30;;
10150;SDS011;5116;52.318;4.644;2023-06-04T11:59:32;1.80;;;1.40;;
10150;SDS011;5116;52.318;4.644;2023-06-04T12:02:00;1.20;;;1.10;;
10150;SDS011;5116;52.318;4.644;2023-06-04T12:04:29;1.30;;;1.20;;
10150;SDS011;5116;52.318;4.644;2023-06-04T12:06:58;2.70;;;1.30;;
10150;SDS011;5116;52.318;4.644;2023-06-04T12:09:29;1.00;;;1.00;;
10150;SDS011;5116;52.318;4.644;2023-06-04T12:12:07;1.40;;;1.30;;
10150;SDS011;5116;52.318;4.644;2023-06-04T12:14:34;1.57;;;1.13;;
10150;SDS011;5116;52.318;4.644;2023-06-04T12:19:30;1.30;;;1.20;;
10150;SDS011;5116;52.318;4.644;2023-06-04T12:21:58;1.30;;;1.20;;
10150;SDS011;5116;52.318;4.644;2023-06-04T12:24:29;1.20;;;1.10;;
10150;SDS011;5116;52.318;4.644;2023-06-04T12:27:01;1.27;;;1.17;;
10150;SDS011;5116;52.318;4.644;2023-06-04T12:29:29;1.20;;;1.10;;
10150;SDS011;5116;52.318;4.644;2023-06-04T12:32:04;0.90;;;0.90;;
10150;SDS011;5116;52.318;4.644;2023-06-04T12:34:39;1.27;;;1.03;;
10150;SDS011;5116;52.318;4.644;2023-06-04T12:37:07;1.23;;;1.13;;
10150;SDS011;5116;52.318;4.644;2023-06-04T12:39:35;1.30;;;1.20;;
10150;SDS011;5116;52.318;4.644;2023-06-04T12:42:05;1.27;;;1.20;;
10150;SDS011;5116;52.318;4.644;2023-06-04T12:44:35;2.23;;;1.30;;
10150;SDS011;5116;52.318;4.644;2023-06-04T12:47:03;1.00;;;1.00;;
10150;SDS011;5116;52.318;4.644;2023-06-04T12:49:30;2.53;;;1.10;;
10150;SDS011;5116;52.318;4.644;2023-06-04T12:51:58;1.53;;;1.40;;
10150;SDS011;5116;52.318;4.644;2023-06-04T12:54:26;0.93;;;0.93;;
10150;SDS011;5116;52.318;4.644;2023-06-04T12:56:54;1.40;;;1.20;;
10150;SDS011;5116;52.318;4.644;2023-06-04T12:59:24;1.13;;;1.03;;
10150;SDS011;5116;52.318;4.644;2023-06-04T13:01:52;1.20;;;1.10;;
10150;SDS011;5116;52.318;4.644;2023-06-04T13:04:20;1.43;;;1.33;;
10150;SDS011;5116;52.318;4.644;2023-06-04T13:06:51;1.20;;;1.10;;
10150;SDS011;5116;52.318;4.644;2023-06-04T13:09:19;1.50;;;1.27;;
10150;SDS011;5116;52.318;4.644;2023-06-04T13:11:49;1.87;;;1.30;;
10150;SDS011;5116;52.318;4.644;2023-06-04T13:14:16;2.60;;;1.67;;
10150;SDS011;5116;52.318;4.644;2023-06-04T13:16:44;1.73;;;1.10;;
10150;SDS011;5116;52.318;4.644;2023-06-04T13:19:15;2.13;;;1.20;;
10150;SDS011;5116;52.318;4.644;2023-06-04T13:21:42;1.20;;;1.07;;
10150;SDS011;5116;52.318;4.644;2023-06-04T13:24:10;2.93;;;1.20;;
10150;SDS011;5116;52.318;4.644;2023-06-04T13:26:37;1.30;;;1.20;;
10150;SDS011;5116;52.318;4.644;2023-06-04T13:29:05;1.33;;;1.00;;
10150;SDS011;5116;52.318;4.644;2023-06-04T13:31:32;0.93;;;0.93;;
10150;SDS011;5116;52.318;4.644;2023-06-04T13:34:00;1.10;;;1.10;;
10150;SDS011;5116;52.318;4.644;2023-06-04T13:36:47;3.07;;;1.03;;
10150;SDS011;5116;52.318;4.644;2023-06-04T13:39:15;1.90;;;1.10;;
10150;SDS011;5116;52.318;4.644;2023-06-04T13:41:42;1.10;;;1.00;;
10150;SDS011;5116;52.318;4.644;2023-06-04T13:44:10;1.43;;;1.13;;
10150;SDS011;5116;52.318;4.644;2023-06-04T13:46:37;1.10;;;1.00;;
10150;SDS011;5116;52.318;4.644;2023-06-04T13:49:05;1.40;;;1.30;;
10150;SDS011;5116;52.318;4.644;2023-06-04T13:51:33;1.10;;;1.10;;
10150;SDS011;5116;52.318;4.644;2023-06-04T13:54:00;1.40;;;1.10;;
10150;SDS011;5116;52.318;4.644;2023-06-04T13:56:28;1.63;;;1.00;;
10150;SDS011;5116;52.318;4.644;2023-06-04T13:58:55;1.37;;;1.20;;
10150;SDS011;5116;52.318;4.644;2023-06-04T14:01:25;1.00;;;1.00;;
10150;SDS011;5116;52.318;4.644;2023-06-04T14:03:52;0.93;;;0.93;;
10150;SDS011;5116;52.318;4.644;2023-06-04T14:06:20;1.07;;;1.00;;
10150;SDS011;5116;52.318;4.644;2023-06-04T14:08:48;2.37;;;1.03;;
10150;SDS011;5116;52.318;4.644;2023-06-04T14:11:16;0.90;;;0.90;;
10150;SDS011;5116;52.318;4.644;2023-06-04T14:13:43;2.37;;;1.30;;
10150;SDS011;5116;52.318;4.644;2023-06-04T14:16:11;1.63;;;1.20;;
10150;SDS011;5116;52.318;4.644;2023-06-04T14:18:39;1.30;;;1.20;;
10150;SDS011;5116;52.318;4.644;2023-06-04T14:21:06;1.00;;;1.00;;
10150;SDS011;5116;52.318;4.644;2023-06-04T14:23:34;1.87;;;1.10;;
10150;SDS011;5116;52.318;4.644;2023-06-04T14:26:02;1.27;;;1.10;;
10150;SDS011;5116;52.318;4.644;2023-06-04T14:28:29;0.90;;;0.90;;
10150;SDS011;5116;52.318;4.644;2023-06-04T14:30:57;1.20;;;1.10;;
10150;SDS011;5116;52.318;4.644;2023-06-04T14:33:25;1.07;;;0.90;;
10150;SDS011;5116;52.318;4.644;2023-06-04T14:35:52;0.97;;;0.97;;
10150;SDS011;5116;52.318;4.644;2023-06-04T14:38:19;1.80;;;1.00;;
10150;SDS011;5116;52.318;4.644;2023-06-04T14:40:47;1.20;;;1.10;;
10150;SDS011;5116;52.318;4.644;2023-06-04T14:43:14;1.20;;;1.10;;
10150;SDS011;5116;52.318;4.644;2023-06-04T14:45:43;1.20;;;1.10;;
10150;SDS011;5116;52.318;4.644;2023-06-04T14:48:10;1.23;;;1.10;;
10150;SDS011;5116;52.318;4.644;2023-06-04T14:50:42;1.00;;;1.00;;
10150;SDS011;5116;52.318;4.644;2023-06-04T14:53:13;1.27;;;1.17;;
10150;SDS011;5116;52.318;4.644;2023-06-04T14:55:41;1.30;;;1.20;;
10150;SDS011;5116;52.318;4.644;2023-06-04T14:58:08;1.10;;;1.10;;
10150;SDS011;5116;52.318;4.644;2023-06-04T15:00:36;0.97;;;0.97;;
10150;SDS011;5116;52.318;4.644;2023-06-04T15:03:03;2.23;;;1.10;;
10150;SDS011;5116;52.318;4.644;2023-06-04T15:05:31;1.30;;;1.03;;
10150;SDS011;5116;52.318;4.644;2023-06-04T15:07:59;2.30;;;1.13;;
10150;SDS011;5116;52.318;4.644;2023-06-04T15:10:26;3.80;;;3.07;;
10150;SDS011;5116;52.318;4.644;2023-06-04T15:12:54;2.27;;;1.83;;
10150;SDS011;5116;52.318;4.644;2023-06-04T15:15:21;2.40;;;2.20;;